Time;durP1;ratioP1;P1;durP2;ratioP2;P2;SDS_P1;SDS_P2;PMS_P1;PMS_P2;Temp;Humidity;BMP_temperature;BMP_pressure;BME280_temperature;BME280_humidity;BME280_pressure;Samples;Min_cycle;Max_cycle;Signal;HPM_P1;HPM_P2
2022/08/30 00:04:55;;;;;;;2.83;2.63;;;;;;;;;;10411373;28;20081;-57
2022/08/30 00:09:55;;;;;;;4.25;2.78;;;;;;;;;;10411111;28;20033;-59
2022/08/30 00:14:57;;;;;;;5.75;2.78;;;;;;;;;;10410856;28;20049;-49
2022/08/30 00:19:57;;;;;;;7.18;2.50;;;;;;;;;;10411116;28;20162;-48
2022/08/30 00:24:59;;;;;;;3.60;2.80;;;;;;;;;;10410725;28;20239;-48
2022/08/30 00:30:00;;;;;;;5.05;2.95;;;;;;;;;;10405071;28;20427;-47
2022/08/30 00:35:01;;;;;;;4.97;2.55;;;;;;;;;;10410554;28;20014;-47
2022/08/30 00:40:04;;;;;;;4.13;2.88;;;;;;;;;;10410065;28;20041;-48
2022/08/30 00:45:23;;;;;;;2.90;2.45;;;;;;;;;;10409106;28;20048;-48
2022/08/30 00:50:31;;;;;;;2.55;2.35;;;;;;;;;;10409961;28;20057;-48
2022/08/30 00:55:32;;;;;;;;;;;;;;;;;;10384394;28;20435;-56
2022/08/30 01:00:33;;;;;;;2.60;2.40;;;;;;;;;;10407792;28;19920;-57
2022/08/30 01:05:37;;;;;;;3.42;2.65;;;;;;;;;;10409836;28;20053;-54
2022/08/30 01:10:38;;;;;;;3.70;2.50;;;;;;;;;;10391660;28;20033;-56
2022/08/30 01:15:40;;;;;;;6.43;2.60;;;;;;;;;;10408762;28;20021;-57
2022/08/30 01:21:19;;;;;;;2.45;2.25;;;;;;;;;;10408468;28;20401;-56
2022/08/30 01:26:21;;;;;;;4.20;2.88;;;;;;;;;;10376169;28;20493;-58
2022/08/30 01:31:22;;;;;;;3.22;2.67;;;;;;;;;;10401765;28;20022;-56
2022/08/30 01:36:23;;;;;;;3.38;2.30;;;;;;;;;;10408708;28;20033;-57
2022/08/30 01:41:29;;;;;;;2.08;1.88;;;;;;;;;;10405064;28;20037;-50
2022/08/30 01:46:39;;;;;;;3.75;2.35;;;;;;;;;;10408352;28;20481;-49
2022/08/30 01:51:41;;;;;;;8.98;2.33;;;;;;;;;;10406779;28;20071;-57
2022/08/30 01:56:42;;;;;;;3.42;2.50;;;;;;;;;;10400749;28;20029;-52
2022/08/30 02:01:42;;;;;;;2.17;1.92;;;;;;;;;;10407703;28;20531;-55
2022/08/30 02:06:43;;;;;;;12.70;3.35;;;;;;;;;;10405584;28;20115;-50
2022/08/30 02:11:44;;;;;;;2.65;2.17;;;;;;;;;;10406466;28;20026;-49
2022/08/30 02:16:46;;;;;;;3.03;2.35;;;;;;;;;;10407197;28;20504;-55
2022/08/30 02:21:46;;;;;;;7.03;2.42;;;;;;;;;;10406627;28;20176;-55
2022/08/30 02:26:48;;;;;;;3.72;2.42;;;;;;;;;;10406192;28;20116;-48
2022/08/30 02:31:48;;;;;;;4.00;2.58;;;;;;;;;;10405405;28;20025;-50
2022/08/30 02:36:49;;;;;;;2.55;2.33;;;;;;;;;;10405821;28;20065;-48
2022/08/30 02:41:50;;;;;;;2.70;2.30;;;;;;;;;;10407318;28;20041;-48
2022/08/30 02:46:50;;;;;;;7.70;2.58;;;;;;;;;;10405642;28;20025;-48
2022/08/30 02:51:51;;;;;;;3.10;2.28;;;;;;;;;;10406445;28;20099;-47
2022/08/30 02:56:52;;;;;;;2.83;2.30;;;;;;;;;;10406071;28;20030;-49
2022/08/30 03:01:52;;;;;;;3.28;2.42;;;;;;;;;;10406329;28;20036;-47
2022/08/30 03:06:53;;;;;;;3.20;2.38;;;;;;;;;;10409136;28;20550;-56
2022/08/30 03:11:54;;;;;;;4.20;2.38;;;;;;;;;;10413725;28;20084;-59
2022/08/30 03:16:54;;;;;;;2.40;2.13;;;;;;;;;;10413478;28;20099;-58
2022/08/30 03:21:55;;;;;;;2.58;2.05;;;;;;;;;;10413032;28;20033;-57
2022/08/30 03:26:56;;;;;;;3.35;2.25;;;;;;;;;;10412959;28;20078;-57
2022/08/30 03:31:57;;;;;;;3.25;2.10;;;;;;;;;;10407759;28;20110;-57
2022/08/30 03:37:00;;;;;;;2.40;2.20;;;;;;;;;;10413426;28;20033;-50
2022/08/30 03:42:00;;;;;;;8.13;2.25;;;;;;;;;;10412033;28;20030;-47
2022/08/30 03:47:01;;;;;;;3.53;2.83;;;;;;;;;;10413698;28;20385;-49
2022/08/30 03:52:03;;;;;;;2.65;2.17;;;;;;;;;;10412199;28;20029;-52
2022/08/30 03:57:04;;;;;;;3.80;2.58;;;;;;;;;;10411536;28;20041;-51
2022/08/30 04:02:04;;;;;;;5.60;2.30;;;;;;;;;;10394235;28;20032;-49
2022/08/30 04:07:05;;;;;;;2.85;2.10;;;;;;;;;;10411481;28;20076;-56
2022/08/30 04:12:06;;;;;;;3.25;2.28;;;;;;;;;;10411663;28;20021;-58
2022/08/30 04:17:07;;;;;;;6.15;2.30;;;;;;;;;;10410510;28;20384;-59
2022/08/30 04:22:07;;;;;;;4.35;2.30;;;;;;;;;;10410456;28;20034;-57
2022/08/30 04:27:09;;;;;;;3.28;2.10;;;;;;;;;;10410955;28;20074;-50
2022/08/30 04:32:10;;;;;;;2.40;2.20;;;;;;;;;;10407574;28;20041;-49
2022/08/30 04:37:10;;;;;;;3.08;2.20;;;;;;;;;;10410475;28;20033;-47
2022/08/30 04:42:11;;;;;;;11.10;2.47;;;;;;;;;;10409683;28;20033;-50
2022/08/30 04:47:11;;;;;;;4.22;1.83;;;;;;;;;;10411110;28;20026;-50
2022/08/30 04:52:12;;;;;;;9.10;2.15;;;;;;;;;;10409976;28;20029;-49
2022/08/30 04:57:13;;;;;;;5.97;2.17;;;;;;;;;;10409368;28;20037;-48
2022/08/30 05:02:14;;;;;;;3.22;1.83;;;;;;;;;;10408911;28;20039;-48
2022/08/30 05:07:14;;;;;;;4.15;2.45;;;;;;;;;;10407317;28;20048;-53
2022/08/30 05:12:15;;;;;;;3.80;2.03;;;;;;;;;;10409849;28;20053;-50
2022/08/30 05:17:16;;;;;;;3.47;2.00;;;;;;;;;;10408614;28;20316;-48
2022/08/30 05:22:17;;;;;;;2.83;2.00;;;;;;;;;;10405355;28;20029;-55
2022/08/30 05:27:17;;;;;;;6.35;1.95;;;;;;;;;;10405897;28;20374;-48
2022/08/30 05:32:18;;;;;;;5.30;2.45;;;;;;;;;;10403627;28;20034;-51
2022/08/30 05:37:19;;;;;;;7.60;3.25;;;;;;;;;;10408348;28;20021;-48
2022/08/30 05:42:19;;;;;;;6.53;3.42;;;;;;;;;;10407222;28;20088;-47
2022/08/30 05:47:20;;;;;;;18.05;4.80;;;;;;;;;;10405550;28;20040;-50
2022/08/30 05:52:21;;;;;;;9.73;5.47;;;;;;;;;;10405616;28;20056;-53
2022/08/30 05:57:22;;;;;;;9.27;4.78;;;;;;;;;;10406654;28;20036;-48
2022/08/30 06:02:22;;;;;;;32.47;4.88;;;;;;;;;;10406255;28;20036;-49
2022/08/30 06:07:23;;;;;;;7.47;4.40;;;;;;;;;;10402072;28;20067;-49
2022/08/30 06:12:24;;;;;;;10.90;4.70;;;;;;;;;;10406835;28;20025;-51
2022/08/30 06:17:25;;;;;;;14.02;4.85;;;;;;;;;;10407424;28;20445;-49
2022/08/30 06:22:26;;;;;;;8.90;4.88;;;;;;;;;;10406315;28;20033;-50
2022/08/30 06:27:27;;;;;;;7.00;4.53;;;;;;;;;;10406060;28;20370;-51
2022/08/30 06:32:27;;;;;;;7.47;4.07;;;;;;;;;;10400407;28;20396;-51
2022/08/30 06:37:28;;;;;;;9.63;4.32;;;;;;;;;;10407333;28;20388;-49
2022/08/30 06:42:32;;;;;;;9.00;4.70;;;;;;;;;;10409521;28;20034;-50
2022/08/30 06:47:32;;;;;;;6.80;4.32;;;;;;;;;;10414109;28;20060;-48
2022/08/30 06:52:33;;;;;;;7.30;4.32;;;;;;;;;;10414124;28;20048;-50
2022/08/30 06:57:34;;;;;;;6.43;4.00;;;;;;;;;;10414416;28;20073;-50
2022/08/30 07:02:38;;;;;;;7.00;3.90;;;;;;;;;;10414184;28;20032;-49
2022/08/30 07:07:38;;;;;;;9.05;4.28;;;;;;;;;;10413244;28;20370;-52
2022/08/30 07:12:40;;;;;;;7.82;3.90;;;;;;;;;;10413019;28;20025;-52
2022/08/30 07:23:00;;;;;;;5.40;3.40;;;;;;;;;;10413486;28;20033;-49
2022/08/30 07:28:01;;;;;;;6.22;3.40;;;;;;;;;;10411503;28;20444;-49
2022/08/30 07:33:03;;;;;;;6.38;3.33;;;;;;;;;;10406836;28;20181;-52
2022/08/30 07:38:03;;;;;;;5.75;3.55;;;;;;;;;;10412734;28;20029;-57
2022/08/30 07:43:04;;;;;;;3.92;3.30;;;;;;;;;;10412513;28;20033;-53
2022/08/30 07:48:06;;;;;;;5.63;3.33;;;;;;;;;;10411875;28;20041;-49
2022/08/30 07:53:06;;;;;;;4.85;3.30;;;;;;;;;;10411368;28;20021;-51
2022/08/30 07:58:07;;;;;;;4.22;3.38;;;;;;;;;;10409309;28;20026;-50
2022/08/30 08:03:08;;;;;;;6.20;3.38;;;;;;;;;;10401694;28;20017;-54
2022/08/30 08:08:10;;;;;;;4.40;3.10;;;;;;;;;;10411287;28;20137;-55
2022/08/30 08:13:11;;;;;;;6.88;3.10;;;;;;;;;;10411442;28;20116;-52
2022/08/30 08:18:12;;;;;;;5.47;3.30;;;;;;;;;;10408288;28;20033;-50
2022/08/30 08:23:12;;;;;;;4.28;3.05;;;;;;;;;;10409998;28;20030;-49
2022/08/30 08:28:13;;;;;;;10.68;3.10;;;;;;;;;;10411388;28;20041;-52
2022/08/30 08:33:13;;;;;;;3.25;2.90;;;;;;;;;;10409022;28;20428;-49
2022/08/30 08:38:15;;;;;;;3.90;2.88;;;;;;;;;;10409666;28;20033;-49
2022/08/30 08:43:20;;;;;;;3.20;2.88;;;;;;;;;;10410806;28;20044;-51
2022/08/30 08:48:48;;;;;;;7.43;3.00;;;;;;;;;;10410794;28;20021;-57
2022/08/30 08:54:24;;;;;;;6.75;3.20;;;;;;;;;;10399229;28;20443;-53
2022/08/30 08:59:24;;;;;;;4.47;2.83;;;;;;;;;;10410270;28;20037;-50
2022/08/30 09:04:34;;;;;;;3.33;2.80;;;;;;;;;;10408172;28;20041;-52
2022/08/30 09:09:39;;;;;;;3.90;2.90;;;;;;;;;;10391741;28;20049;-52
2022/08/30 09:14:50;;;;;;;6.22;2.80;;;;;;;;;;10409537;28;20025;-50
2022/08/30 09:19:51;;;;;;;5.95;3.10;;;;;;;;;;10391731;28;20481;-51
2022/08/30 09:25:07;;;;;;;3.13;2.60;;;;;;;;;;10407904;28;20025;-49
2022/08/30 09:30:18;;;;;;;6.47;3.08;;;;;;;;;;10402992;28;20444;-51
2022/08/30 09:35:45;;;;;;;4.28;2.67;;;;;;;;;;10401701;28;20373;-50
2022/08/30 09:40:51;;;;;;;3.97;3.17;;;;;;;;;;10399576;28;20524;-49
2022/08/30 09:46:00;;;;;;;4.28;2.95;;;;;;;;;;10406184;28;20025;-49
2022/08/30 09:51:10;;;;;;;4.50;2.90;;;;;;;;;;10407182;28;20083;-49
2022/08/30 09:56:30;;;;;;;3.35;3.00;;;;;;;;;;10407609;28;20113;-52
2022/08/30 10:01:49;;;;;;;3.78;3.15;;;;;;;;;;10407358;28;20036;-49
2022/08/30 10:07:07;;;;;;;2.95;2.65;;;;;;;;;;10392558;28;20701;-53
2022/08/30 10:12:21;;;;;;;3.08;2.78;;;;;;;;;;10406227;28;20025;-49
2022/08/30 10:18:09;;;;;;;3.75;2.92;;;;;;;;;;10392902;28;20025;-49
2022/08/30 10:23:28;;;;;;;5.22;3.20;;;;;;;;;;10383317;28;20033;-49
2022/08/30 10:28:54;;;;;;;3.60;2.75;;;;;;;;;;10407339;28;20029;-50
2022/08/30 10:34:03;;;;;;;3.30;3.00;;;;;;;;;;10389012;28;20057;-49
2022/08/30 10:39:08;;;;;;;3.75;3.00;;;;;;;;;;10390860;28;20041;-49
2022/08/30 10:44:32;;;;;;;3.30;3.00;;;;;;;;;;10405794;28;20477;-52
2022/08/30 10:49:43;;;;;;;2.90;2.63;;;;;;;;;;10388583;28;20029;-50
2022/08/30 10:55:17;;;;;;;4.13;2.75;;;;;;;;;;10388489;28;20022;-52
2022/08/30 11:00:29;;;;;;;7.75;3.00;;;;;;;;;;10405570;28;20029;-49
2022/08/30 11:06:19;;;;;;;3.10;2.70;;;;;;;;;;10405747;28;20085;-49
2022/08/30 11:11:41;;;;;;;3.90;3.25;;;;;;;;;;10398656;28;20029;-50
2022/08/30 11:16:46;;;;;;;3.63;2.80;;;;;;;;;;10387630;28;20010;-51
2022/08/30 11:21:48;;;;;;;3.72;2.88;;;;;;;;;;10405525;28;20147;-49
2022/08/30 11:26:56;;;;;;;3.28;2.95;;;;;;;;;;10388064;28;20030;-49
2022/08/30 11:32:05;;;;;;;5.82;3.10;;;;;;;;;;10400581;28;20048;-49
2022/08/30 11:37:07;;;;;;;2.90;2.70;;;;;;;;;;10395899;28;20531;-50
2022/08/30 11:42:28;;;;;;;3.83;2.72;;;;;;;;;;10395049;28;20094;-50
2022/08/30 11:47:43;;;;;;;4.35;3.20;;;;;;;;;;10411850;28;20017;-58
2022/08/30 11:53:27;;;;;;;3.70;3.20;;;;;;;;;;10410148;28;20481;-50
2022/08/30 11:58:48;;;;;;;3.42;2.92;;;;;;;;;;10397166;28;20024;-51
2022/08/30 12:04:25;;;;;;;3.55;2.90;;;;;;;;;;10410654;28;20427;-51
2022/08/30 12:09:25;;;;;;;5.82;3.10;;;;;;;;;;10326463;28;20065;-51
2022/08/30 12:15:01;;;;;;;3.80;3.13;;;;;;;;;;10329396;28;20037;-51
2022/08/30 12:20:12;;;;;;;3.40;3.10;;;;;;;;;;10326656;28;20813;-49
2022/08/30 12:25:27;;;;;;;4.60;2.97;;;;;;;;;;10327406;28;20034;-55
2022/08/30 12:30:27;;;;;;;5.47;3.17;;;;;;;;;;10328296;28;20278;-49
2022/08/30 12:35:28;;;;;;;4.65;3.50;;;;;;;;;;10327828;28;20293;-52
2022/08/30 12:40:33;;;;;;;3.85;3.42;;;;;;;;;;10326744;28;20037;-51
2022/08/30 12:45:44;;;;;;;4.47;3.25;;;;;;;;;;10327259;28;20050;-52
2022/08/30 12:50:50;;;;;;;3.30;3.00;;;;;;;;;;10328749;28;20048;-52
2022/08/30 12:55:58;;;;;;;8.50;3.25;;;;;;;;;;10327092;28;20026;-51
2022/08/30 13:01:26;;;;;;;5.90;3.30;;;;;;;;;;10326726;28;20036;-52
2022/08/30 13:06:49;;;;;;;3.88;3.08;;;;;;;;;;10358420;28;20052;-51
2022/08/30 13:11:50;;;;;;;10.10;3.25;;;;;;;;;;10402879;28;20285;-49
2022/08/30 13:17:04;;;;;;;4.40;3.20;;;;;;;;;;10408504;28;20099;-50
2022/08/30 13:22:22;;;;;;;6.13;3.50;;;;;;;;;;10407655;28;20090;-51
2022/08/30 13:27:24;;;;;;;4.25;3.53;;;;;;;;;;10408406;28;20029;-49
2022/08/30 13:32:24;;;;;;;5.82;3.50;;;;;;;;;;10408260;28;20053;-48
2022/08/30 13:37:25;;;;;;;4.65;3.08;;;;;;;;;;10407006;28;20021;-50
2022/08/30 13:42:26;;;;;;;5.05;3.20;;;;;;;;;;10413579;28;20037;-50
2022/08/30 13:47:28;;;;;;;5.00;3.53;;;;;;;;;;10407821;28;20033;-52
2022/08/30 13:52:29;;;;;;;14.05;3.55;;;;;;;;;;10400975;28;20033;-48
2022/08/30 13:57:30;;;;;;;22.98;6.10;;;;;;;;;;10407947;28;20025;-49
2022/08/30 14:02:31;;;;;;;28.10;6.57;;;;;;;;;;10388314;28;20037;-49
2022/08/30 14:07:31;;;;;;;20.50;6.72;;;;;;;;;;10405750;28;20103;-49
2022/08/30 14:12:32;;;;;;;16.33;5.22;;;;;;;;;;10406802;28;20494;-50
2022/08/30 14:17:34;;;;;;;21.92;5.90;;;;;;;;;;10406375;28;20032;-52
2022/08/30 14:22:34;;;;;;;19.23;5.40;;;;;;;;;;10388563;28;20388;-52
2022/08/30 14:27:35;;;;;;;16.05;4.85;;;;;;;;;;10406166;28;20025;-49
2022/08/30 14:32:36;;;;;;;17.45;5.07;;;;;;;;;;10405319;28;20400;-51
2022/08/30 14:37:36;;;;;;;20.35;5.82;;;;;;;;;;10405502;28;20121;-57
2022/08/30 14:42:37;;;;;;;12.95;4.88;;;;;;;;;;10405442;28;20087;-53
2022/08/30 14:47:38;;;;;;;15.88;5.10;;;;;;;;;;10405523;28;20108;-51
2022/08/30 14:52:38;;;;;;;12.55;4.70;;;;;;;;;;10405241;28;20025;-52
2022/08/30 14:57:39;;;;;;;12.15;4.38;;;;;;;;;;10406017;28;20082;-56
2022/08/30 15:02:40;;;;;;;12.85;4.47;;;;;;;;;;10408097;28;20273;-49
2022/08/30 15:07:41;;;;;;;15.40;4.15;;;;;;;;;;10413473;28;20053;-52
2022/08/30 15:12:41;;;;;;;11.60;4.05;;;;;;;;;;10414092;28;20037;-51
2022/08/30 15:17:43;;;;;;;11.10;4.25;;;;;;;;;;10413865;28;20060;-56
2022/08/30 15:22:45;;;;;;;6.63;3.75;;;;;;;;;;10413291;28;20535;-49
2022/08/30 15:27:45;;;;;;;9.32;3.75;;;;;;;;;;10413074;28;20037;-49
2022/08/30 15:32:46;;;;;;;7.65;3.90;;;;;;;;;;10400270;28;20029;-50
2022/08/30 15:37:47;;;;;;;9.75;3.63;;;;;;;;;;10413315;28;20457;-49
2022/08/30 15:42:47;;;;;;;10.73;3.80;;;;;;;;;;10413048;28;20453;-49
2022/08/30 15:47:48;;;;;;;6.25;3.60;;;;;;;;;;10412449;28;20033;-50
2022/08/30 15:52:48;;;;;;;11.68;3.97;;;;;;;;;;10412537;28;20079;-49
2022/08/30 15:57:49;;;;;;;7.50;3.63;;;;;;;;;;10411951;28;20030;-49
2022/08/30 16:02:50;;;;;;;13.32;4.10;;;;;;;;;;10411682;28;20061;-50
2022/08/30 16:07:51;;;;;;;6.72;2.97;;;;;;;;;;10412390;28;20045;-50
2022/08/30 16:12:51;;;;;;;5.32;3.17;;;;;;;;;;10411870;28;20034;-48
2022/08/30 16:17:52;;;;;;;7.05;3.28;;;;;;;;;;10411702;28;20257;-48
2022/08/30 16:22:52;;;;;;;6.78;3.53;;;;;;;;;;10411697;28;20044;-49
2022/08/30 16:27:53;;;;;;;5.93;3.28;;;;;;;;;;10411184;28;20071;-49
2022/08/30 16:32:54;;;;;;;5.82;2.97;;;;;;;;;;10408362;28;20496;-50
2022/08/30 16:37:54;;;;;;;7.07;3.58;;;;;;;;;;10410409;28;20428;-49
2022/08/30 16:42:55;;;;;;;7.68;3.55;;;;;;;;;;10409687;28;20029;-49
2022/08/30 16:47:55;;;;;;;6.07;2.88;;;;;;;;;;10410648;28;20098;-49
2022/08/30 16:52:56;;;;;;;7.75;3.17;;;;;;;;;;10406112;28;20091;-48
2022/08/30 16:57:57;;;;;;;6.10;3.65;;;;;;;;;;10404463;28;20025;-50
2022/08/30 17:02:58;;;;;;;6.88;2.88;;;;;;;;;;10410362;28;20037;-49
2022/08/30 17:07:58;;;;;;;3.63;3.13;;;;;;;;;;10408320;28;20124;-49
2022/08/30 17:12:59;;;;;;;3.70;3.00;;;;;;;;;;10409409;28;20029;-49
2022/08/30 17:18:00;;;;;;;6.53;3.22;;;;;;;;;;10408005;28;20179;-49
2022/08/30 17:23:00;;;;;;;5.10;3.10;;;;;;;;;;10408617;28;20037;-49
2022/08/30 17:28:02;;;;;;;4.32;3.05;;;;;;;;;;10408281;28;20075;-50
2022/08/30 17:33:03;;;;;;;5.45;3.45;;;;;;;;;;10402971;28;20045;-48
2022/08/30 17:38:03;;;;;;;6.25;3.20;;;;;;;;;;10405088;28;20060;-49
2022/08/30 17:43:04;;;;;;;5.45;3.47;;;;;;;;;;10406445;28;20432;-49
2022/08/30 17:48:05;;;;;;;3.75;2.92;;;;;;;;;;10406061;28;20033;-48
2022/08/30 17:53:06;;;;;;;4.10;2.95;;;;;;;;;;10403625;28;20193;-49
2022/08/30 17:58:06;;;;;;;5.40;3.10;;;;;;;;;;10402331;28;20207;-49
2022/08/30 18:03:07;;;;;;;5.93;3.22;;;;;;;;;;10407279;28;20033;-49
2022/08/30 18:08:08;;;;;;;5.30;3.45;;;;;;;;;;10406681;28;20045;-48
2022/08/30 18:13:08;;;;;;;3.17;2.53;;;;;;;;;;10407216;28;20034;-49
2022/08/30 18:18:09;;;;;;;4.53;2.75;;;;;;;;;;10401565;28;20025;-49
2022/08/30 18:23:10;;;;;;;3.95;2.88;;;;;;;;;;10405426;28;20040;-48
2022/08/30 18:28:11;;;;;;;2.88;2.38;;;;;;;;;;10402763;28;20029;-50
2022/08/30 18:33:11;;;;;;;3.13;2.45;;;;;;;;;;10400795;28;20017;-50
2022/08/30 18:38:12;;;;;;;3.20;2.50;;;;;;;;;;10405262;28;20028;-52
2022/08/30 18:43:13;;;;;;;5.28;2.60;;;;;;;;;;10404976;28;20281;-49
2022/08/30 18:48:15;;;;;;;4.35;2.53;;;;;;;;;;10406258;28;20029;-49
2022/08/30 18:53:16;;;;;;;6.65;2.60;;;;;;;;;;10405136;28;20036;-49
2022/08/30 18:58:16;;;;;;;2.97;1.90;;;;;;;;;;10404968;28;20378;-48
2022/08/30 19:03:18;;;;;;;7.05;2.22;;;;;;;;;;10405683;28;20034;-49
2022/08/30 19:08:18;;;;;;;2.20;1.95;;;;;;;;;;10404639;28;20038;-49
2022/08/30 19:13:19;;;;;;;7.00;2.13;;;;;;;;;;10404580;28;20025;-49
2022/08/30 19:18:21;;;;;;;7.38;1.65;;;;;;;;;;10404150;28;20489;-52
2022/08/30 19:23:21;;;;;;;4.45;1.42;;;;;;;;;;10404021;28;20029;-52
2022/08/30 19:28:23;;;;;;;2.63;1.63;;;;;;;;;;10404993;28;20493;-49
2022/08/30 19:33:23;;;;;;;3.72;1.73;;;;;;;;;;10403386;28;20079;-50
2022/08/30 19:38:25;;;;;;;5.10;1.50;;;;;;;;;;10397688;28;20103;-49
2022/08/30 19:43:26;;;;;;;13.68;1.65;;;;;;;;;;10389409;28;20116;-49
2022/08/30 19:48:29;;;;;;;4.80;1.77;;;;;;;;;;10399791;28;20622;-49
2022/08/30 19:53:29;;;;;;;8.77;2.13;;;;;;;;;;10364391;28;20807;-50
2022/08/30 19:58:30;;;;;;;3.25;1.60;;;;;;;;;;10392745;28;20040;-49
2022/08/30 20:03:30;;;;;;;7.07;2.42;;;;;;;;;;10406907;28;20030;-51
2022/08/30 20:08:31;;;;;;;4.03;2.33;;;;;;;;;;10401557;28;20076;-48
2022/08/30 20:13:32;;;;;;;6.05;2.67;;;;;;;;;;10406379;28;20075;-49
2022/08/30 20:18:32;;;;;;;8.05;2.50;;;;;;;;;;10403838;28;20060;-50
2022/08/30 20:23:34;;;;;;;5.78;2.08;;;;;;;;;;10383207;28;20044;-49
2022/08/30 20:28:35;;;;;;;6.85;2.03;;;;;;;;;;10403069;28;20033;-50
2022/08/30 20:33:37;;;;;;;4.70;1.90;;;;;;;;;;10404030;28;20512;-52
2022/08/30 20:38:38;;;;;;;5.88;1.85;;;;;;;;;;10408074;28;20026;-49
2022/08/30 20:43:39;;;;;;;4.20;2.00;;;;;;;;;;10404434;28;20033;-52
2022/08/30 20:48:40;;;;;;;3.22;1.60;;;;;;;;;;10397545;28;20044;-49
2022/08/30 20:53:42;;;;;;;2.17;1.73;;;;;;;;;;10397082;28;20032;-50
2022/08/30 20:58:43;;;;;;;5.30;1.88;;;;;;;;;;10396449;28;20206;-48
2022/08/30 21:03:46;;;;;;;2.03;1.70;;;;;;;;;;10402413;28;20033;-51
2022/08/30 21:08:47;;;;;;;4.45;1.55;;;;;;;;;;10405698;28;20489;-48
2022/08/30 21:13:47;;;;;;;2.67;1.67;;;;;;;;;;10405197;28;20095;-49
2022/08/30 21:18:48;;;;;;;2.25;1.70;;;;;;;;;;10403250;28;20487;-49
2022/08/30 21:23:50;;;;;;;5.00;2.05;;;;;;;;;;10399521;28;20069;-48
2022/08/30 21:28:53;;;;;;;3.55;1.83;;;;;;;;;;10401312;28;20037;-49
2022/08/30 21:33:54;;;;;;;4.20;1.90;;;;;;;;;;10401696;28;20057;-54
2022/08/30 21:38:56;;;;;;;5.25;1.65;;;;;;;;;;10399990;28;20370;-49
2022/08/30 21:44:01;;;;;;;2.63;1.60;;;;;;;;;;10403602;28;20083;-49
2022/08/30 21:49:05;;;;;;;4.55;1.70;;;;;;;;;;10402532;28;20061;-49
2022/08/30 21:54:08;;;;;;;5.32;1.83;;;;;;;;;;10399683;28;20041;-57
2022/08/30 21:59:10;;;;;;;5.53;1.80;;;;;;;;;;10382794;28;20056;-50
2022/08/30 22:04:12;;;;;;;6.10;1.80;;;;;;;;;;10397726;28;20451;-53
2022/08/30 22:09:15;;;;;;;2.88;1.85;;;;;;;;;;10401676;28;20084;-50
2022/08/30 22:14:17;;;;;;;13.40;1.80;;;;;;;;;;10399678;28;20029;-58
2022/08/30 22:19:18;;;;;;;2.30;1.90;;;;;;;;;;10404338;28;20025;-57
2022/08/30 22:24:20;;;;;;;2.42;1.92;;;;;;;;;;10401475;28;20030;-55
2022/08/30 22:29:21;;;;;;;7.22;2.10;;;;;;;;;;10407258;28;20465;-53
2022/08/30 22:34:21;;;;;;;2.97;1.85;;;;;;;;;;10396307;28;20029;-53
2022/08/30 22:39:22;;;;;;;5.63;1.73;;;;;;;;;;10404763;28;20382;-54
2022/08/30 22:44:23;;;;;;;6.57;2.30;;;;;;;;;;10406609;28;20039;-51
2022/08/30 22:49:24;;;;;;;2.03;1.80;;;;;;;;;;10406943;28;20041;-52
2022/08/30 22:54:25;;;;;;;6.05;2.00;;;;;;;;;;10406784;28;20121;-50
2022/08/30 22:59:25;;;;;;;19.20;2.25;;;;;;;;;;10405847;28;20276;-56
2022/08/30 23:04:26;;;;;;;7.97;2.50;;;;;;;;;;10405327;28;20038;-57
2022/08/30 23:09:27;;;;;;;1.88;1.60;;;;;;;;;;10406666;28;20104;-54
2022/08/30 23:14:28;;;;;;;2.92;1.92;;;;;;;;;;10405628;28;20013;-56
2022/08/30 23:19:28;;;;;;;6.35;1.75;;;;;;;;;;10405879;28;20381;-56
